Terminal Aerodrome Forecast
Issued by NWS Paducah, KY

Home | Current Version | Previous Version | Text Only | Print | Product List | Glossary On
Versions: 1 2 3 4 5 6 7 8 9 10 11 12 13 14 15 16 17 18 19 20
340
FTUS43 KPAH 270520
TAFPAH
TAF
KPAH 270520Z 2706/2806 VRB03KT P6SM BKN250
     FM270800 00000KT 3SM BR BKN250
     FM271400 VRB04KT P6SM SCT020
     FM272100 VRB05KT P6SM -SHRA VCTS BKN040CB
     FM280100 VRB03KT P6SM BKN040=

USA.gov is the U.S. government's official web portal to all federal, state and local government web resources and services.